createdAt,value
2023-09-08T00:00:42.000Z,5080.0
2023-09-08T00:01:41.000Z,4690.0
2023-09-08T00:02:41.000Z,4790.0
2023-09-08T00:03:41.000Z,4883.0
2023-09-08T00:04:41.000Z,5313.0
2023-09-08T00:05:41.000Z,5099.0
2023-09-08T00:06:42.000Z,5445.0
2023-09-08T00:07:41.000Z,5582.0
2023-09-08T00:08:41.000Z,5420.0
2023-09-08T00:09:41.000Z,5125.0
2023-09-08T00:10:41.000Z,4586.0
2023-09-08T00:11:42.000Z,4248.0
2023-09-08T00:12:41.000Z,3530.0
2023-09-08T00:13:41.000Z,3361.0
2023-09-08T00:14:40.000Z,3301.0
2023-09-08T00:15:41.000Z,3625.0
2023-09-08T00:16:41.000Z,3925.0
2023-09-08T00:17:41.000Z,4098.0
2023-09-08T00:18:41.000Z,4110.0
2023-09-08T00:19:42.000Z,3836.0
2023-09-08T00:20:41.000Z,1224.0
2023-09-08T00:21:41.000Z,1583.0
2023-09-08T00:22:41.000Z,1834.0
2023-09-08T00:23:41.000Z,2223.0
2023-09-08T00:24:41.000Z,2608.0
2023-09-08T00:25:41.000Z,2719.0
2023-09-08T00:26:41.000Z,2682.0
2023-09-08T00:27:40.000Z,2824.0
2023-09-08T00:28:41.000Z,2954.0
2023-09-08T00:29:41.000Z,3112.0
2023-09-08T00:30:41.000Z,3282.0
2023-09-08T00:31:41.000Z,3129.0
2023-09-08T00:32:42.000Z,3009.0
2023-09-08T00:33:41.000Z,3040.0
2023-09-08T00:34:41.000Z,2518.0
2023-09-08T00:35:40.000Z,1960.0
2023-09-08T00:36:41.000Z,2087.0
2023-09-08T00:37:42.000Z,2313.0
2023-09-08T00:38:41.000Z,1988.0
2023-09-08T00:39:41.000Z,1885.0
2023-09-08T00:40:40.000Z,2162.0
2023-09-08T00:41:41.000Z,2647.0
2023-09-08T00:42:41.000Z,2733.0
2023-09-08T00:43:41.000Z,2811.0
2023-09-08T00:44:41.000Z,2460.0
2023-09-08T00:45:42.000Z,2489.0
2023-09-08T00:46:41.000Z,2784.0
2023-09-08T00:47:41.000Z,3144.0
2023-09-08T00:48:41.000Z,3232.0
2023-09-08T00:49:41.000Z,3785.0
2023-09-08T00:50:41.000Z,4360.0
2023-09-08T00:51:41.000Z,4832.0
2023-09-08T00:52:41.000Z,4632.0
2023-09-08T00:53:40.000Z,3700.0
2023-09-08T00:54:41.000Z,2382.0
2023-09-08T00:55:41.000Z,2171.0
2023-09-08T00:56:41.000Z,1827.0
2023-09-08T00:57:41.000Z,1791.0
2023-09-08T00:58:42.000Z,1544.0
2023-09-08T00:59:41.000Z,1789.0
2023-09-08T01:00:41.000Z,2204.0
2023-09-08T01:01:40.000Z,2928.0
2023-09-08T01:02:41.000Z,3422.0
2023-09-08T01:03:41.000Z,2913.0
2023-09-08T01:04:40.000Z,2871.0
2023-09-08T01:05:41.000Z,3019.0
2023-09-08T01:06:41.000Z,2971.0
2023-09-08T01:07:41.000Z,3116.0
2023-09-08T01:08:41.000Z,3316.0
2023-09-08T01:09:42.000Z,3240.0
2023-09-08T01:10:41.000Z,3270.0
2023-09-08T01:11:41.000Z,3385.0
2023-09-08T01:12:40.000Z,3397.0
2023-09-08T01:13:41.000Z,3670.0
2023-09-08T01:14:41.000Z,4105.0
2023-09-08T01:15:41.000Z,4328.0
2023-09-08T01:16:41.000Z,4608.0
2023-09-08T01:17:40.000Z,4712.0
2023-09-08T01:18:41.000Z,4633.0
2023-09-08T01:19:41.000Z,4315.0
2023-09-08T01:20:41.000Z,4002.0
2023-09-08T01:21:41.000Z,3676.0
2023-09-08T01:22:42.000Z,3554.0
2023-09-08T01:23:41.000Z,3312.0
2023-09-08T01:24:41.000Z,2496.0
2023-09-08T01:25:40.000Z,1077.0
2023-09-08T01:26:41.000Z,1638.0
2023-09-08T01:27:41.000Z,2285.0
2023-09-08T01:28:41.000Z,2882.0
2023-09-08T01:29:41.000Z,3161.0
2023-09-08T01:30:40.000Z,3221.0
2023-09-08T01:31:41.000Z,3351.0
2023-09-08T01:32:41.000Z,3510.0
2023-09-08T01:33:41.000Z,3981.0
2023-09-08T01:34:41.000Z,4193.0
2023-09-08T01:35:42.000Z,4267.0
2023-09-08T01:36:41.000Z,4124.0
2023-09-08T01:37:41.000Z,3298.0
2023-09-08T01:38:40.000Z,3165.0
2023-09-08T01:39:41.000Z,2905.0
2023-09-08T01:40:41.000Z,1708.0
2023-09-08T01:41:41.000Z,1265.0
2023-09-08T01:42:41.000Z,1749.0
2023-09-08T01:43:40.000Z,2226.0
2023-09-08T01:44:41.000Z,2634.0
2023-09-08T01:45:41.000Z,3111.0
2023-09-08T01:46:41.000Z,3386.0
2023-09-08T01:47:41.000Z,3574.0
2023-09-08T01:48:42.000Z,3690.0
2023-09-08T01:49:41.000Z,3943.0
2023-09-08T01:50:41.000Z,3879.0
2023-09-08T01:51:40.000Z,4150.0
2023-09-08T01:52:41.000Z,4086.0
2023-09-08T01:53:41.000Z,4497.0
2023-09-08T01:54:41.000Z,4782.0
2023-09-08T01:55:41.000Z,5238.0
2023-09-08T01:56:40.000Z,5619.0
2023-09-08T01:57:41.000Z,6208.0
2023-09-08T01:58:41.000Z,6609.0
2023-09-08T01:59:41.000Z,7520.0
2023-09-08T02:00:41.000Z,7075.0
2023-09-08T02:01:42.000Z,7164.0
2023-09-08T02:02:41.000Z,6976.0
2023-09-08T02:03:41.000Z,7765.0
2023-09-08T02:04:42.000Z,7794.0
2023-09-08T02:05:41.000Z,7970.0
2023-09-08T02:06:41.000Z,8071.0
2023-09-08T02:07:40.000Z,8201.0
2023-09-08T02:08:41.000Z,8696.0
2023-09-08T02:09:41.000Z,8689.0
2023-09-08T02:10:41.000Z,9363.0
2023-09-08T02:11:41.000Z,9432.0
2023-09-08T02:12:42.000Z,8192.0
2023-09-08T02:13:41.000Z,7373.0
2023-09-08T02:14:41.000Z,7881.0
2023-09-08T02:15:40.000Z,8243.0
2023-09-08T02:16:41.000Z,8249.0
2023-09-08T02:17:41.000Z,7733.0
2023-09-08T02:18:41.000Z,8268.0
2023-09-08T02:19:41.000Z,9159.0
2023-09-08T02:20:40.000Z,8939.0
2023-09-08T02:21:41.000Z,8813.0
2023-09-08T02:22:41.000Z,8753.0
2023-09-08T02:23:41.000Z,9105.0
2023-09-08T02:24:41.000Z,8740.0
2023-09-08T02:25:42.000Z,9084.0
2023-09-08T02:26:41.000Z,9770.0
2023-09-08T02:27:41.000Z,9710.0
2023-09-08T02:28:40.000Z,9293.0
2023-09-08T02:29:41.000Z,9185.0
2023-09-08T02:30:41.000Z,8374.0
2023-09-08T02:31:41.000Z,7643.0
2023-09-08T02:32:41.000Z,7637.0
2023-09-08T02:33:40.000Z,7376.0
2023-09-08T02:34:41.000Z,7597.0
2023-09-08T02:35:41.000Z,7341.0
2023-09-08T02:36:40.000Z,6757.0
2023-09-08T02:37:41.000Z,7027.0
2023-09-08T02:38:42.000Z,7071.0
2023-09-08T02:39:41.000Z,6660.0
2023-09-08T02:40:41.000Z,7247.0
2023-09-08T02:41:40.000Z,6960.0
2023-09-08T02:42:41.000Z,6520.0
2023-09-08T02:43:41.000Z,5824.0
2023-09-08T02:44:41.000Z,5423.0
2023-09-08T02:45:41.000Z,5089.0
2023-09-08T02:46:40.000Z,5109.0
2023-09-08T02:47:41.000Z,4937.0
2023-09-08T02:48:41.000Z,5019.0
2023-09-08T02:49:41.000Z,4867.0
2023-09-08T02:50:41.000Z,4754.0
2023-09-08T02:51:41.000Z,4205.0
2023-09-08T02:52:41.000Z,3840.0
2023-09-08T02:53:41.000Z,4023.0
2023-09-08T02:54:40.000Z,4211.0
2023-09-08T02:55:41.000Z,4013.0
2023-09-08T02:56:41.000Z,3846.0
2023-09-08T02:57:41.000Z,3908.0
2023-09-08T02:58:41.000Z,4152.0
2023-09-08T02:59:40.000Z,3953.0
2023-09-08T03:00:41.000Z,3637.0
2023-09-08T03:01:41.000Z,3757.0
2023-09-08T03:02:42.000Z,4222.0
2023-09-08T03:03:41.000Z,4813.0
2023-09-08T03:04:41.000Z,5513.0
2023-09-08T03:05:40.000Z,5482.0
2023-09-08T03:06:41.000Z,5752.0
2023-09-08T03:07:41.000Z,5732.0
2023-09-08T03:08:41.000Z,5909.0
2023-09-08T03:09:41.000Z,5778.0
2023-09-08T03:10:40.000Z,5826.0
2023-09-08T03:11:41.000Z,5030.0
2023-09-08T03:12:41.000Z,4465.0
2023-09-08T03:13:40.000Z,3995.0
2023-09-08T03:14:41.000Z,4135.0
2023-09-08T03:15:41.000Z,3720.0
2023-09-08T03:16:41.000Z,3269.0
2023-09-08T03:17:41.000Z,2773.0
2023-09-08T03:18:40.000Z,2334.0
2023-09-08T03:19:41.000Z,627.0
2023-09-08T03:20:41.000Z,984.0
2023-09-08T03:21:41.000Z,1132.0
2023-09-08T03:22:41.000Z,1390.0
2023-09-08T03:23:40.000Z,1737.0
2023-09-08T03:24:41.000Z,1740.0
2023-09-08T03:25:41.000Z,1874.0
2023-09-08T03:26:41.000Z,2088.0
2023-09-08T03:27:41.000Z,2380.0
2023-09-08T03:28:41.000Z,2580.0
2023-09-08T03:29:41.000Z,2748.0
2023-09-08T03:30:41.000Z,1849.0
2023-09-08T03:31:40.000Z,2378.0
2023-09-08T03:32:41.000Z,2432.0
2023-09-08T03:33:41.000Z,2804.0
2023-09-08T03:34:41.000Z,3007.0
2023-09-08T03:35:41.000Z,3510.0
2023-09-08T03:36:40.000Z,3953.0
2023-09-08T03:37:41.000Z,4030.0
2023-09-08T03:38:41.000Z,4165.0
2023-09-08T03:39:40.000Z,4523.0
2023-09-08T03:40:41.000Z,4497.0
2023-09-08T03:41:41.000Z,4624.0
2023-09-08T03:42:41.000Z,4968.0
2023-09-08T03:43:41.000Z,5085.0
2023-09-08T03:44:40.000Z,5245.0
2023-09-08T03:45:41.000Z,5628.0
2023-09-08T03:46:41.000Z,6607.0
2023-09-08T03:47:41.000Z,7816.0
2023-09-08T03:48:41.000Z,7712.0
2023-09-08T03:49:42.000Z,7601.0
2023-09-08T03:50:41.000Z,8057.0
2023-09-08T03:51:41.000Z,8531.0
2023-09-08T03:52:40.000Z,7947.0
2023-09-08T03:53:41.000Z,8531.0
2023-09-08T03:54:41.000Z,8142.0
2023-09-08T03:55:41.000Z,7645.0
2023-09-08T03:56:41.000Z,7245.0
2023-09-08T03:57:40.000Z,6185.0
2023-09-08T03:58:41.000Z,5540.0
2023-09-08T03:59:41.000Z,5019.0
2023-09-08T04:00:41.000Z,5101.0
2023-09-08T04:01:41.000Z,5336.0
2023-09-08T04:02:41.000Z,5166.0
2023-09-08T04:03:41.000Z,5289.0
2023-09-08T04:04:41.000Z,4819.0
2023-09-08T04:05:42.000Z,4898.0
2023-09-08T04:06:41.000Z,5205.0
2023-09-08T04:07:41.000Z,5699.0
2023-09-08T04:08:40.000Z,5456.0
2023-09-08T04:09:41.000Z,5605.0
2023-09-08T04:10:41.000Z,5789.0
2023-09-08T04:11:41.000Z,5716.0
2023-09-08T04:12:41.000Z,5669.0
2023-09-08T04:13:41.000Z,4983.0
2023-09-08T04:14:41.000Z,4107.0
2023-09-08T04:15:41.000Z,3012.0
2023-09-08T04:16:40.000Z,3081.0
2023-09-08T04:17:41.000Z,3158.0
2023-09-08T04:18:41.000Z,3124.0
2023-09-08T04:19:41.000Z,2778.0
2023-09-08T04:20:41.000Z,2540.0
2023-09-08T04:21:40.000Z,1615.0
2023-09-08T04:22:41.000Z,1539.0
2023-09-08T04:23:41.000Z,1390.0
2023-09-08T04:24:40.000Z,1650.0
2023-09-08T04:25:41.000Z,1830.0
2023-09-08T04:26:42.000Z,2227.0
2023-09-08T04:27:41.000Z,2196.0
2023-09-08T04:28:41.000Z,2365.0
2023-09-08T04:29:40.000Z,2638.0
2023-09-08T04:30:41.000Z,2869.0
2023-09-08T04:31:41.000Z,2681.0
2023-09-08T04:32:41.000Z,2651.0
2023-09-08T04:33:41.000Z,3042.0
2023-09-08T04:34:40.000Z,3168.0
2023-09-08T04:35:41.000Z,3269.0
2023-09-08T04:36:41.000Z,3706.0
2023-09-08T04:37:41.000Z,4083.0
2023-09-08T04:38:41.000Z,3522.0
2023-09-08T04:39:41.000Z,3360.0
2023-09-08T04:40:41.000Z,3266.0
2023-09-08T04:41:41.000Z,3194.0
2023-09-08T04:42:40.000Z,2873.0
2023-09-08T04:43:41.000Z,2861.0
2023-09-08T04:44:41.000Z,2389.0
2023-09-08T04:45:41.000Z,2143.0
2023-09-08T04:46:41.000Z,1963.0
2023-09-08T04:47:40.000Z,1879.0
2023-09-08T04:48:41.000Z,1782.0
2023-09-08T04:49:41.000Z,804.0
2023-09-08T04:50:40.000Z,1084.0
2023-09-08T04:51:41.000Z,1484.0
2023-09-08T04:52:41.000Z,1591.0
2023-09-08T04:53:41.000Z,1858.0
2023-09-08T04:54:41.000Z,2207.0
2023-09-08T04:55:40.000Z,2671.0
2023-09-08T04:56:41.000Z,2850.0
2023-09-08T04:57:41.000Z,3161.0
2023-09-08T04:58:41.000Z,3340.0
2023-09-08T04:59:41.000Z,3553.0
2023-09-08T05:00:40.000Z,3737.0
2023-09-08T05:01:41.000Z,3644.0
2023-09-08T05:02:41.000Z,3819.0
2023-09-08T05:03:40.000Z,3310.0
2023-09-08T05:04:41.000Z,3734.0
2023-09-08T05:05:41.000Z,3597.0
2023-09-08T05:06:40.000Z,4002.0
2023-09-08T05:07:41.000Z,4107.0
2023-09-08T05:08:41.000Z,3965.0
2023-09-08T05:09:41.000Z,3903.0
2023-09-08T05:10:41.000Z,3894.0
2023-09-08T05:11:42.000Z,4371.0
2023-09-08T05:12:41.000Z,4632.0
2023-09-08T05:13:41.000Z,4488.0
2023-09-08T05:14:40.000Z,4785.0
2023-09-08T05:15:41.000Z,4992.0
2023-09-08T05:16:41.000Z,5234.0
2023-09-08T05:17:41.000Z,5507.0
2023-09-08T05:18:41.000Z,6080.0
2023-09-08T05:19:40.000Z,6604.0
2023-09-08T05:20:41.000Z,7630.0
2023-09-08T05:21:41.000Z,8082.0
2023-09-08T05:22:41.000Z,7985.0
2023-09-08T05:23:41.000Z,7716.0
2023-09-08T05:24:41.000Z,8145.0
2023-09-08T05:25:41.000Z,8000.0
2023-09-08T05:26:41.000Z,8896.0
2023-09-08T05:27:40.000Z,9346.0
2023-09-08T05:28:41.000Z,9783.0
2023-09-08T05:29:41.000Z,9888.0
2023-09-08T05:30:41.000Z,10143.0
2023-09-08T05:31:41.000Z,11590.0
2023-09-08T05:32:40.000Z,12386.0
2023-09-08T05:33:41.000Z,13244.0
2023-09-08T05:34:41.000Z,14856.0
2023-09-08T05:35:40.000Z,14601.0
2023-09-08T05:36:41.000Z,14991.0
2023-09-08T05:37:42.000Z,16000.0
2023-09-08T05:38:41.000Z,16000.0
2023-09-08T05:39:41.000Z,15549.0
2023-09-08T05:40:40.000Z,14709.0
2023-09-08T05:41:41.000Z,14479.0
2023-09-08T05:42:41.000Z,15019.0
2023-09-08T05:43:41.000Z,15972.0
2023-09-08T05:44:41.000Z,14904.0
2023-09-08T05:45:40.000Z,16000.0
2023-09-08T05:46:41.000Z,16000.0
2023-09-08T05:47:41.000Z,16000.0
2023-09-08T05:48:41.000Z,16000.0
2023-09-08T05:49:41.000Z,16000.0
2023-09-08T05:50:41.000Z,16000.0
2023-09-08T05:51:41.000Z,16000.0
2023-09-08T05:52:41.000Z,16000.0
2023-09-08T05:53:40.000Z,16000.0
2023-09-08T05:54:41.000Z,16000.0
2023-09-08T05:55:41.000Z,16000.0
2023-09-08T05:56:41.000Z,16000.0
2023-09-08T05:57:41.000Z,16000.0
2023-09-08T05:58:40.000Z,16000.0
2023-09-08T05:59:41.000Z,16000.0
2023-09-08T06:00:41.000Z,16000.0
2023-09-08T06:01:40.000Z,16000.0
2023-09-08T06:02:41.000Z,16000.0
2023-09-08T06:03:41.000Z,15452.0
2023-09-08T06:04:40.000Z,14855.0
2023-09-08T06:05:41.000Z,13146.0
2023-09-08T06:06:41.000Z,13834.0
2023-09-08T06:07:41.000Z,12667.0
2023-09-08T06:08:41.000Z,13636.0
2023-09-08T06:09:40.000Z,14953.0
2023-09-08T06:10:41.000Z,16000.0
2023-09-08T06:11:41.000Z,16000.0
2023-09-08T06:12:40.000Z,16000.0
2023-09-08T06:13:41.000Z,16000.0
2023-09-08T06:14:41.000Z,16000.0
2023-09-08T06:15:41.000Z,16000.0
2023-09-08T06:16:41.000Z,15571.0
2023-09-08T06:17:40.000Z,15532.0
2023-09-08T06:18:41.000Z,15776.0
2023-09-08T06:19:41.000Z,16000.0
2023-09-08T06:20:41.000Z,16000.0
2023-09-08T06:21:41.000Z,16000.0
2023-09-08T06:22:40.000Z,16000.0
2023-09-08T06:23:41.000Z,16000.0
2023-09-08T06:24:41.000Z,16000.0
2023-09-08T06:25:40.000Z,16000.0
2023-09-08T06:26:41.000Z,16000.0
2023-09-08T06:27:41.000Z,16000.0
2023-09-08T06:28:41.000Z,16000.0
2023-09-08T06:29:41.000Z,16000.0
2023-09-08T06:30:40.000Z,16000.0
2023-09-08T06:31:41.000Z,16000.0
2023-09-08T06:32:41.000Z,16000.0
2023-09-08T06:33:41.000Z,16000.0
2023-09-08T06:34:41.000Z,16000.0
2023-09-08T06:35:40.000Z,16000.0
2023-09-08T06:36:41.000Z,16000.0
2023-09-08T06:37:41.000Z,16000.0
2023-09-08T06:38:40.000Z,16000.0
2023-09-08T06:39:41.000Z,16000.0
2023-09-08T06:40:41.000Z,16000.0
2023-09-08T06:41:41.000Z,16000.0
2023-09-08T06:42:41.000Z,16000.0
2023-09-08T06:43:40.000Z,16000.0
2023-09-08T06:44:41.000Z,16000.0
2023-09-08T06:45:41.000Z,16000.0
2023-09-08T06:46:41.000Z,16000.0
2023-09-08T06:47:41.000Z,16000.0
2023-09-08T06:48:40.000Z,16000.0
2023-09-08T06:49:41.000Z,16000.0
2023-09-08T06:50:41.000Z,16000.0
2023-09-08T06:51:40.000Z,16000.0
2023-09-08T06:52:41.000Z,16000.0
2023-09-08T06:53:41.000Z,16000.0
2023-09-08T06:54:41.000Z,16000.0
2023-09-08T06:55:41.000Z,16000.0
2023-09-08T06:56:40.000Z,16000.0
2023-09-08T06:57:41.000Z,16000.0
2023-09-08T06:58:41.000Z,16000.0
2023-09-08T06:59:41.000Z,16000.0
2023-09-08T07:00:41.000Z,16000.0
2023-09-08T07:01:40.000Z,16000.0
2023-09-08T07:02:41.000Z,16000.0
2023-09-08T07:03:41.000Z,16000.0
2023-09-08T07:04:40.000Z,16000.0
2023-09-08T07:05:41.000Z,16000.0
2023-09-08T07:06:41.000Z,16000.0
2023-09-08T07:07:40.000Z,16000.0
2023-09-08T07:08:41.000Z,16000.0
2023-09-08T07:09:41.000Z,16000.0
2023-09-08T07:10:41.000Z,16000.0
2023-09-08T07:11:41.000Z,16000.0
2023-09-08T07:12:40.000Z,16000.0
2023-09-08T07:13:41.000Z,16000.0
2023-09-08T07:14:41.000Z,16000.0
2023-09-08T07:15:40.000Z,16000.0
2023-09-08T07:16:41.000Z,16000.0
2023-09-08T07:17:41.000Z,16000.0
2023-09-08T07:18:41.000Z,16000.0
2023-09-08T07:19:41.000Z,16000.0
2023-09-08T07:20:40.000Z,16000.0
2023-09-08T07:21:41.000Z,16000.0
2023-09-08T07:22:41.000Z,16000.0
2023-09-08T07:23:41.000Z,16000.0
2023-09-08T07:24:41.000Z,16000.0
2023-09-08T07:25:40.000Z,16000.0
2023-09-08T07:26:41.000Z,16000.0
2023-09-08T07:27:41.000Z,16000.0
2023-09-08T07:28:40.000Z,16000.0
2023-09-08T07:29:41.000Z,16000.0
2023-09-08T07:30:41.000Z,16000.0
2023-09-08T07:31:41.000Z,16000.0
2023-09-08T07:32:41.000Z,16000.0
2023-09-08T07:33:40.000Z,16000.0
2023-09-08T07:34:41.000Z,16000.0
2023-09-08T07:35:41.000Z,16000.0
2023-09-08T07:36:41.000Z,16000.0
2023-09-08T07:37:41.000Z,16000.0
2023-09-08T07:38:40.000Z,16000.0
2023-09-08T07:39:41.000Z,16000.0
2023-09-08T07:40:41.000Z,16000.0
2023-09-08T07:41:40.000Z,16000.0
2023-09-08T07:42:41.000Z,16000.0
2023-09-08T07:43:41.000Z,16000.0
2023-09-08T07:44:41.000Z,16000.0
2023-09-08T07:45:41.000Z,16000.0
2023-09-08T07:46:40.000Z,16000.0
2023-09-08T07:47:41.000Z,16000.0
2023-09-08T07:48:41.000Z,16000.0
2023-09-08T07:49:41.000Z,16000.0
2023-09-08T07:50:41.000Z,16000.0
2023-09-08T07:51:40.000Z,16000.0
2023-09-08T07:52:41.000Z,16000.0
2023-09-08T07:53:41.000Z,16000.0
2023-09-08T07:54:40.000Z,16000.0
2023-09-08T07:55:41.000Z,16000.0
2023-09-08T07:56:41.000Z,16000.0
2023-09-08T07:57:41.000Z,16000.0
2023-09-08T07:58:41.000Z,16000.0
2023-09-08T07:59:40.000Z,16000.0
2023-09-08T08:00:41.000Z,16000.0
2023-09-08T08:01:41.000Z,16000.0
2023-09-08T08:02:40.000Z,16000.0
2023-09-08T08:03:41.000Z,16000.0
2023-09-08T08:04:41.000Z,16000.0
2023-09-08T08:05:40.000Z,16000.0
2023-09-08T08:06:41.000Z,16000.0
2023-09-08T08:07:41.000Z,16000.0
2023-09-08T08:08:41.000Z,16000.0
2023-09-08T08:09:41.000Z,16000.0
2023-09-08T08:10:40.000Z,16000.0
2023-09-08T08:11:41.000Z,16000.0
2023-09-08T08:12:41.000Z,16000.0
2023-09-08T08:13:41.000Z,16000.0
2023-09-08T08:14:41.000Z,16000.0
2023-09-08T08:15:40.000Z,16000.0
2023-09-08T08:16:41.000Z,16000.0
2023-09-08T08:17:41.000Z,16000.0
2023-09-08T08:18:40.000Z,16000.0
2023-09-08T08:19:41.000Z,16000.0
2023-09-08T08:20:41.000Z,16000.0
2023-09-08T08:21:41.000Z,16000.0
2023-09-08T08:22:41.000Z,16000.0
2023-09-08T08:23:40.000Z,16000.0
2023-09-08T08:24:41.000Z,16000.0
2023-09-08T08:25:41.000Z,16000.0
2023-09-08T08:26:41.000Z,16000.0
2023-09-08T08:27:41.000Z,16000.0
2023-09-08T08:28:41.000Z,16000.0
2023-09-08T08:29:41.000Z,16000.0
2023-09-08T08:30:41.000Z,16000.0
2023-09-08T08:31:40.000Z,16000.0
2023-09-08T08:32:41.000Z,16000.0
2023-09-08T08:33:41.000Z,16000.0
2023-09-08T08:34:41.000Z,16000.0
2023-09-08T08:35:41.000Z,16000.0
2023-09-08T08:36:40.000Z,16000.0
2023-09-08T08:37:41.000Z,16000.0
2023-09-08T08:38:41.000Z,16000.0
2023-09-08T08:39:40.000Z,16000.0
2023-09-08T08:40:41.000Z,16000.0
2023-09-08T08:41:42.000Z,16000.0
2023-09-08T08:42:41.000Z,16000.0
2023-09-08T08:43:41.000Z,16000.0
2023-09-08T08:44:40.000Z,16000.0
2023-09-08T08:45:41.000Z,16000.0
2023-09-08T08:46:41.000Z,16000.0
2023-09-08T08:47:41.000Z,16000.0
2023-09-08T08:48:41.000Z,16000.0
2023-09-08T08:49:40.000Z,16000.0
2023-09-08T08:50:41.000Z,16000.0
2023-09-08T08:51:41.000Z,16000.0
2023-09-08T08:52:41.000Z,16000.0
2023-09-08T08:53:41.000Z,16000.0
2023-09-08T08:54:41.000Z,16000.0
2023-09-08T08:55:41.000Z,16000.0
2023-09-08T08:56:41.000Z,16000.0
2023-09-08T08:57:40.000Z,16000.0
2023-09-08T08:58:41.000Z,16000.0
2023-09-08T08:59:41.000Z,16000.0
2023-09-08T09:00:41.000Z,16000.0
2023-09-08T09:01:41.000Z,16000.0
2023-09-08T09:02:41.000Z,16000.0
2023-09-08T09:03:41.000Z,16000.0
2023-09-08T09:04:41.000Z,16000.0
2023-09-08T09:05:42.000Z,16000.0
2023-09-08T09:06:41.000Z,16000.0
2023-09-08T09:07:41.000Z,16000.0
2023-09-08T09:08:40.000Z,16000.0
2023-09-08T09:09:41.000Z,16000.0
2023-09-08T09:10:41.000Z,16000.0
2023-09-08T09:11:41.000Z,16000.0
2023-09-08T09:12:41.000Z,16000.0
2023-09-08T09:13:42.000Z,16000.0
2023-09-08T09:14:41.000Z,16000.0
2023-09-08T09:15:41.000Z,16000.0
2023-09-08T09:16:40.000Z,16000.0
2023-09-08T09:17:41.000Z,16000.0
2023-09-08T09:18:41.000Z,16000.0
2023-09-08T09:19:41.000Z,16000.0
2023-09-08T09:20:41.000Z,16000.0
2023-09-08T09:21:40.000Z,16000.0
2023-09-08T09:22:41.000Z,16000.0
2023-09-08T09:23:41.000Z,16000.0
2023-09-08T09:24:41.000Z,16000.0
2023-09-08T09:25:41.000Z,16000.0
2023-09-08T09:26:40.000Z,16000.0
2023-09-08T09:27:41.000Z,16000.0
2023-09-08T09:28:41.000Z,16000.0
2023-09-08T09:29:40.000Z,16000.0
2023-09-08T09:30:41.000Z,16000.0
2023-09-08T09:31:41.000Z,16000.0
2023-09-08T09:32:41.000Z,16000.0
2023-09-08T09:33:41.000Z,16000.0
2023-09-08T09:34:40.000Z,16000.0
2023-09-08T09:35:41.000Z,16000.0
2023-09-08T09:36:41.000Z,16000.0
2023-09-08T09:37:41.000Z,16000.0
2023-09-08T09:38:41.000Z,16000.0
2023-09-08T09:39:42.000Z,16000.0
2023-09-08T09:40:41.000Z,16000.0
2023-09-08T09:41:41.000Z,16000.0
2023-09-08T09:42:40.000Z,16000.0
2023-09-08T09:43:41.000Z,16000.0
2023-09-08T09:44:41.000Z,16000.0
2023-09-08T09:45:41.000Z,16000.0
2023-09-08T09:46:41.000Z,16000.0
2023-09-08T09:47:40.000Z,16000.0
2023-09-08T09:48:41.000Z,16000.0
2023-09-08T09:49:41.000Z,16000.0
2023-09-08T09:50:41.000Z,16000.0
2023-09-08T09:51:41.000Z,16000.0
2023-09-08T09:52:42.000Z,16000.0
2023-09-08T09:53:41.000Z,16000.0
2023-09-08T09:54:41.000Z,16000.0
2023-09-08T09:55:40.000Z,16000.0
2023-09-08T09:56:41.000Z,16000.0
2023-09-08T09:57:41.000Z,16000.0
2023-09-08T09:58:41.000Z,16000.0
2023-09-08T09:59:41.000Z,16000.0
2023-09-08T10:00:40.000Z,16000.0
2023-09-08T10:01:41.000Z,16000.0
2023-09-08T10:02:41.000Z,16000.0
2023-09-08T10:03:40.000Z,16000.0
2023-09-08T10:04:41.000Z,16000.0
2023-09-08T10:05:41.000Z,16000.0
2023-09-08T10:06:41.000Z,16000.0
2023-09-08T10:07:41.000Z,16000.0
2023-09-08T10:08:40.000Z,16000.0
2023-09-08T10:09:41.000Z,16000.0
2023-09-08T10:10:41.000Z,16000.0
2023-09-08T10:11:41.000Z,16000.0
2023-09-08T10:12:41.000Z,16000.0
2023-09-08T10:13:42.000Z,16000.0
2023-09-08T10:14:41.000Z,16000.0
2023-09-08T10:15:41.000Z,16000.0
2023-09-08T10:16:40.000Z,16000.0
2023-09-08T10:17:41.000Z,16000.0
2023-09-08T10:18:41.000Z,16000.0
2023-09-08T10:19:41.000Z,16000.0
2023-09-08T10:20:41.000Z,16000.0
2023-09-08T10:21:40.000Z,16000.0
2023-09-08T10:22:41.000Z,16000.0
2023-09-08T10:23:41.000Z,16000.0
2023-09-08T10:24:41.000Z,16000.0
2023-09-08T10:25:41.000Z,16000.0
2023-09-08T10:26:42.000Z,16000.0
2023-09-08T10:27:41.000Z,16000.0
2023-09-08T10:28:41.000Z,16000.0
2023-09-08T10:29:40.000Z,16000.0
2023-09-08T10:30:41.000Z,16000.0
2023-09-08T10:31:41.000Z,16000.0
2023-09-08T10:32:41.000Z,16000.0
2023-09-08T10:33:41.000Z,16000.0
2023-09-08T10:34:40.000Z,16000.0
2023-09-08T10:35:41.000Z,16000.0
2023-09-08T10:36:41.000Z,16000.0
2023-09-08T10:37:41.000Z,16000.0
2023-09-08T10:38:41.000Z,16000.0
2023-09-08T10:39:42.000Z,16000.0
2023-09-08T10:40:41.000Z,16000.0
2023-09-08T10:41:41.000Z,16000.0
2023-09-08T10:42:40.000Z,16000.0
2023-09-08T10:43:41.000Z,16000.0
2023-09-08T10:44:41.000Z,16000.0
2023-09-08T10:45:41.000Z,16000.0
2023-09-08T10:46:41.000Z,16000.0
2023-09-08T10:47:40.000Z,16000.0
2023-09-08T10:48:41.000Z,16000.0
2023-09-08T10:49:41.000Z,16000.0
2023-09-08T10:50:41.000Z,16000.0
2023-09-08T10:51:41.000Z,16000.0
2023-09-08T10:52:42.000Z,16000.0
2023-09-08T10:53:41.000Z,16000.0
2023-09-08T10:54:41.000Z,16000.0
2023-09-08T10:55:40.000Z,16000.0
2023-09-08T10:56:41.000Z,16000.0
2023-09-08T10:57:41.000Z,16000.0
2023-09-08T10:58:41.000Z,16000.0
2023-09-08T10:59:41.000Z,16000.0
2023-09-08T11:00:40.000Z,16000.0
2023-09-08T11:01:41.000Z,16000.0
2023-09-08T11:02:41.000Z,16000.0
2023-09-08T11:03:40.000Z,16000.0
2023-09-08T11:04:41.000Z,16000.0
2023-09-08T11:05:41.000Z,16000.0
2023-09-08T11:06:41.000Z,16000.0
2023-09-08T11:07:41.000Z,16000.0
2023-09-08T11:08:41.000Z,16000.0
2023-09-08T11:09:41.000Z,16000.0
2023-09-08T11:10:41.000Z,16000.0
2023-09-08T11:11:40.000Z,16000.0
2023-09-08T11:12:41.000Z,16000.0
2023-09-08T11:13:41.000Z,16000.0
2023-09-08T11:14:41.000Z,16000.0
2023-09-08T11:15:41.000Z,16000.0
2023-09-08T11:16:42.000Z,16000.0
2023-09-08T11:17:41.000Z,16000.0
2023-09-08T11:18:41.000Z,16000.0
2023-09-08T11:19:40.000Z,16000.0
2023-09-08T11:20:41.000Z,16000.0
2023-09-08T11:21:41.000Z,16000.0
2023-09-08T11:22:41.000Z,16000.0
2023-09-08T11:23:41.000Z,16000.0
2023-09-08T11:24:42.000Z,16000.0
2023-09-08T11:25:41.000Z,16000.0
2023-09-08T11:26:41.000Z,16000.0
2023-09-08T11:27:41.000Z,16000.0
2023-09-08T11:28:41.000Z,16000.0
2023-09-08T11:29:42.000Z,16000.0
2023-09-08T11:30:41.000Z,16000.0
2023-09-08T11:31:41.000Z,16000.0
2023-09-08T11:32:40.000Z,16000.0
2023-09-08T11:33:41.000Z,16000.0
2023-09-08T11:34:41.000Z,16000.0
2023-09-08T11:35:41.000Z,16000.0
2023-09-08T11:36:41.000Z,16000.0
2023-09-08T11:37:40.000Z,16000.0
2023-09-08T11:38:41.000Z,16000.0
2023-09-08T11:39:41.000Z,16000.0
2023-09-08T11:40:41.000Z,16000.0
2023-09-08T11:41:41.000Z,16000.0
2023-09-08T11:42:42.000Z,16000.0
2023-09-08T11:43:41.000Z,16000.0
2023-09-08T11:44:41.000Z,16000.0
2023-09-08T11:45:40.000Z,16000.0
2023-09-08T11:46:41.000Z,16000.0
2023-09-08T11:47:41.000Z,16000.0
2023-09-08T11:48:41.000Z,16000.0
2023-09-08T11:49:41.000Z,16000.0
2023-09-08T11:50:42.000Z,16000.0
2023-09-08T11:51:41.000Z,16000.0
2023-09-08T11:52:41.000Z,16000.0
2023-09-08T11:53:41.000Z,16000.0
2023-09-08T11:54:41.000Z,16000.0
2023-09-08T11:55:41.000Z,16000.0
2023-09-08T11:56:41.000Z,16000.0
2023-09-08T11:57:41.000Z,16000.0
2023-09-08T11:58:40.000Z,16000.0
2023-09-08T11:59:41.000Z,16000.0
2023-09-08T12:00:41.000Z,16000.0
2023-09-08T12:01:41.000Z,16000.0
2023-09-08T12:02:41.000Z,16000.0
2023-09-08T12:03:41.000Z,16000.0
2023-09-08T12:04:41.000Z,16000.0
2023-09-08T12:05:41.000Z,16000.0
2023-09-08T12:06:42.000Z,16000.0
2023-09-08T12:07:41.000Z,16000.0
2023-09-08T12:08:41.000Z,16000.0
2023-09-08T12:09:40.000Z,16000.0
2023-09-08T12:10:41.000Z,16000.0
2023-09-08T12:11:41.000Z,16000.0
2023-09-08T12:12:41.000Z,16000.0
2023-09-08T12:13:41.000Z,16000.0
2023-09-08T12:14:42.000Z,16000.0
2023-09-08T12:15:41.000Z,16000.0